sensor_id;sensor_type;location;lat;lon;timestamp;P1;durP1;ratioP1;P2;durP2;ratioP2
56321;SDS011;42227;6.376;-10.782;2024-02-14T00:00:52;37.83;;;16.52;;
56321;SDS011;42227;6.376;-10.782;2024-02-14T00:03:21;46.70;;;19.77;;
56321;SDS011;42227;6.376;-10.782;2024-02-14T00:05:49;36.05;;;17.40;;
56321;SDS011;42227;6.376;-10.782;2024-02-14T00:08:18;42.53;;;19.10;;
56321;SDS011;42227;6.376;-10.782;2024-02-14T00:10:46;47.38;;;20.08;;
56321;SDS011;42227;6.376;-10.782;2024-02-14T00:13:14;42.38;;;20.25;;
56321;SDS011;42227;6.376;-10.782;2024-02-14T00:15:43;48.63;;;21.70;;
56321;SDS011;42227;6.376;-10.782;2024-02-14T00:18:12;50.95;;;20.17;;
56321;SDS011;42227;6.376;-10.782;2024-02-14T00:20:41;46.00;;;19.50;;
56321;SDS011;42227;6.376;-10.782;2024-02-14T00:23:09;53.63;;;23.58;;
56321;SDS011;42227;6.376;-10.782;2024-02-14T00:25:38;62.40;;;26.35;;
56321;SDS011;42227;6.376;-10.782;2024-02-14T00:28:06;45.60;;;23.45;;
56321;SDS011;42227;6.376;-10.782;2024-02-14T00:30:35;56.13;;;27.38;;
56321;SDS011;42227;6.376;-10.782;2024-02-14T00:33:05;43.63;;;24.67;;
56321;SDS011;42227;6.376;-10.782;2024-02-14T00:35:50;53.95;;;28.65;;
56321;SDS011;42227;6.376;-10.782;2024-02-14T00:38:21;51.33;;;25.90;;
56321;SDS011;42227;6.376;-10.782;2024-02-14T00:40:55;45.22;;;26.55;;
56321;SDS011;42227;6.376;-10.782;2024-02-14T00:43:24;52.08;;;19.55;;
56321;SDS011;42227;6.376;-10.782;2024-02-14T00:45:52;36.13;;;17.67;;
56321;SDS011;42227;6.376;-10.782;2024-02-14T00:48:24;51.25;;;20.65;;
56321;SDS011;42227;6.376;-10.782;2024-02-14T00:53:24;56.67;;;24.52;;
56321;SDS011;42227;6.376;-10.782;2024-02-14T00:56:01;37.30;;;19.52;;
56321;SDS011;42227;6.376;-10.782;2024-02-14T00:58:33;43.10;;;20.02;;
56321;SDS011;42227;6.376;-10.782;2024-02-14T01:01:01;46.35;;;18.23;;
56321;SDS011;42227;6.376;-10.782;2024-02-14T01:03:31;41.13;;;15.45;;
56321;SDS011;42227;6.376;-10.782;2024-02-14T01:06:01;48.67;;;17.70;;
56321;SDS011;42227;6.376;-10.782;2024-02-14T01:08:32;39.95;;;18.95;;
56321;SDS011;42227;6.376;-10.782;2024-02-14T01:11:03;43.20;;;19.35;;
56321;SDS011;42227;6.376;-10.782;2024-02-14T01:13:34;44.70;;;21.77;;
56321;SDS011;42227;6.376;-10.782;2024-02-14T01:16:03;40.92;;;18.27;;
56321;SDS011;42227;6.376;-10.782;2024-02-14T01:18:33;29.65;;;16.00;;
56321;SDS011;42227;6.376;-10.782;2024-02-14T01:21:05;31.02;;;15.60;;
56321;SDS011;42227;6.376;-10.782;2024-02-14T01:23:35;56.72;;;20.60;;
56321;SDS011;42227;6.376;-10.782;2024-02-14T01:26:05;57.03;;;20.25;;
56321;SDS011;42227;6.376;-10.782;2024-02-14T01:28:35;50.83;;;22.02;;
56321;SDS011;42227;6.376;-10.782;2024-02-14T01:31:08;36.47;;;20.05;;
56321;SDS011;42227;6.376;-10.782;2024-02-14T01:33:36;47.03;;;21.10;;
56321;SDS011;42227;6.376;-10.782;2024-02-14T01:36:06;60.08;;;21.08;;
56321;SDS011;42227;6.376;-10.782;2024-02-14T01:38:38;44.50;;;21.45;;
56321;SDS011;42227;6.376;-10.782;2024-02-14T01:41:06;41.25;;;20.38;;
56321;SDS011;42227;6.376;-10.782;2024-02-14T01:43:37;43.30;;;20.58;;
56321;SDS011;42227;6.376;-10.782;2024-02-14T01:46:10;43.97;;;18.98;;
56321;SDS011;42227;6.376;-10.782;2024-02-14T01:48:40;44.85;;;16.48;;
56321;SDS011;42227;6.376;-10.782;2024-02-14T01:51:12;53.00;;;21.27;;
56321;SDS011;42227;6.376;-10.782;2024-02-14T01:53:41;45.28;;;21.70;;
56321;SDS011;42227;6.376;-10.782;2024-02-14T01:56:10;41.22;;;18.38;;
56321;SDS011;42227;6.376;-10.782;2024-02-14T01:58:41;43.58;;;16.55;;
56321;SDS011;42227;6.376;-10.782;2024-02-14T02:01:17;31.75;;;15.85;;
56321;SDS011;42227;6.376;-10.782;2024-02-14T02:03:49;44.40;;;15.25;;
56321;SDS011;42227;6.376;-10.782;2024-02-14T02:06:19;37.90;;;16.25;;
56321;SDS011;42227;6.376;-10.782;2024-02-14T02:08:48;36.55;;;16.67;;
56321;SDS011;42227;6.376;-10.782;2024-02-14T02:11:20;41.50;;;21.85;;
56321;SDS011;42227;6.376;-10.782;2024-02-14T02:13:50;41.60;;;17.88;;
56321;SDS011;42227;6.376;-10.782;2024-02-14T02:16:25;54.70;;;27.67;;
56321;SDS011;42227;6.376;-10.782;2024-02-14T02:18:55;62.75;;;31.10;;
56321;SDS011;42227;6.376;-10.782;2024-02-14T02:21:26;67.55;;;29.92;;
56321;SDS011;42227;6.376;-10.782;2024-02-14T02:23:56;68.18;;;30.40;;
56321;SDS011;42227;6.376;-10.782;2024-02-14T02:26:24;54.95;;;26.52;;
56321;SDS011;42227;6.376;-10.782;2024-02-14T02:28:54;57.17;;;28.40;;
56321;SDS011;42227;6.376;-10.782;2024-02-14T02:31:24;57.80;;;26.17;;
56321;SDS011;42227;6.376;-10.782;2024-02-14T02:33:53;50.80;;;27.63;;
56321;SDS011;42227;6.376;-10.782;2024-02-14T02:36:24;51.88;;;26.40;;
56321;SDS011;42227;6.376;-10.782;2024-02-14T02:38:52;50.78;;;25.63;;
56321;SDS011;42227;6.376;-10.782;2024-02-14T02:41:21;68.20;;;26.40;;
56321;SDS011;42227;6.376;-10.782;2024-02-14T02:43:51;69.57;;;26.63;;
56321;SDS011;42227;6.376;-10.782;2024-02-14T02:46:19;63.60;;;28.60;;
56321;SDS011;42227;6.376;-10.782;2024-02-14T02:48:49;59.10;;;26.77;;
56321;SDS011;42227;6.376;-10.782;2024-02-14T02:51:18;53.65;;;28.05;;
56321;SDS011;42227;6.376;-10.782;2024-02-14T02:53:47;71.82;;;26.33;;
56321;SDS011;42227;6.376;-10.782;2024-02-14T02:56:15;53.72;;;25.58;;
56321;SDS011;42227;6.376;-10.782;2024-02-14T02:58:44;62.85;;;29.38;;
56321;SDS011;42227;6.376;-10.782;2024-02-14T03:01:13;63.22;;;28.98;;
56321;SDS011;42227;6.376;-10.782;2024-02-14T03:03:41;65.22;;;29.98;;
56321;SDS011;42227;6.376;-10.782;2024-02-14T03:06:10;70.28;;;29.67;;
56321;SDS011;42227;6.376;-10.782;2024-02-14T03:08:38;64.65;;;30.05;;
56321;SDS011;42227;6.376;-10.782;2024-02-14T03:11:07;68.88;;;29.70;;
56321;SDS011;42227;6.376;-10.782;2024-02-14T03:13:35;60.65;;;25.67;;
56321;SDS011;42227;6.376;-10.782;2024-02-14T03:16:04;55.90;;;24.38;;
56321;SDS011;42227;6.376;-10.782;2024-02-14T03:18:32;79.97;;;30.42;;
56321;SDS011;42227;6.376;-10.782;2024-02-14T03:21:01;54.58;;;28.98;;
56321;SDS011;42227;6.376;-10.782;2024-02-14T03:23:31;62.65;;;32.88;;
56321;SDS011;42227;6.376;-10.782;2024-02-14T03:25:59;58.85;;;29.15;;
56321;SDS011;42227;6.376;-10.782;2024-02-14T03:28:29;75.40;;;37.88;;
56321;SDS011;42227;6.376;-10.782;2024-02-14T03:30:59;81.85;;;35.10;;
56321;SDS011;42227;6.376;-10.782;2024-02-14T03:33:27;73.13;;;32.97;;
56321;SDS011;42227;6.376;-10.782;2024-02-14T03:35:57;64.28;;;27.33;;
56321;SDS011;42227;6.376;-10.782;2024-02-14T03:38:26;61.42;;;25.75;;
56321;SDS011;42227;6.376;-10.782;2024-02-14T03:40:57;79.40;;;33.55;;
56321;SDS011;42227;6.376;-10.782;2024-02-14T03:43:26;83.85;;;35.45;;
56321;SDS011;42227;6.376;-10.782;2024-02-14T03:45:55;99.28;;;31.52;;
56321;SDS011;42227;6.376;-10.782;2024-02-14T03:48:26;58.28;;;29.75;;
56321;SDS011;42227;6.376;-10.782;2024-02-14T03:50:55;73.70;;;31.40;;
56321;SDS011;42227;6.376;-10.782;2024-02-14T03:53:23;65.57;;;27.52;;
56321;SDS011;42227;6.376;-10.782;2024-02-14T03:55:52;61.10;;;25.55;;
56321;SDS011;42227;6.376;-10.782;2024-02-14T03:58:20;64.57;;;27.15;;
56321;SDS011;42227;6.376;-10.782;2024-02-14T04:00:51;59.75;;;25.35;;
56321;SDS011;42227;6.376;-10.782;2024-02-14T04:03:20;51.88;;;22.38;;
56321;SDS011;42227;6.376;-10.782;2024-02-14T04:05:48;80.68;;;27.60;;
56321;SDS011;42227;6.376;-10.782;2024-02-14T04:08:17;45.88;;;22.30;;
56321;SDS011;42227;6.376;-10.782;2024-02-14T04:10:45;66.53;;;24.30;;
56321;SDS011;42227;6.376;-10.782;2024-02-14T04:13:14;55.78;;;23.48;;
56321;SDS011;42227;6.376;-10.782;2024-02-14T04:15:42;52.22;;;23.55;;
56321;SDS011;42227;6.376;-10.782;2024-02-14T04:18:11;54.92;;;24.98;;
56321;SDS011;42227;6.376;-10.782;2024-02-14T04:20:39;64.55;;;29.48;;
56321;SDS011;42227;6.376;-10.782;2024-02-14T04:23:08;51.60;;;28.10;;
56321;SDS011;42227;6.376;-10.782;2024-02-14T04:25:37;57.42;;;31.48;;
56321;SDS011;42227;6.376;-10.782;2024-02-14T04:28:06;49.97;;;25.60;;
56321;SDS011;42227;6.376;-10.782;2024-02-14T04:30:34;56.63;;;26.50;;
56321;SDS011;42227;6.376;-10.782;2024-02-14T04:33:03;78.90;;;29.85;;
56321;SDS011;42227;6.376;-10.782;2024-02-14T04:35:35;52.03;;;24.08;;
56321;SDS011;42227;6.376;-10.782;2024-02-14T04:38:04;44.25;;;22.30;;
56321;SDS011;42227;6.376;-10.782;2024-02-14T04:40:33;45.20;;;22.40;;
56321;SDS011;42227;6.376;-10.782;2024-02-14T04:43:01;50.47;;;22.40;;
56321;SDS011;42227;6.376;-10.782;2024-02-14T04:45:30;56.88;;;22.27;;
56321;SDS011;42227;6.376;-10.782;2024-02-14T04:47:58;48.85;;;21.85;;
56321;SDS011;42227;6.376;-10.782;2024-02-14T04:50:27;42.15;;;22.48;;
56321;SDS011;42227;6.376;-10.782;2024-02-14T04:52:55;74.45;;;39.13;;
56321;SDS011;42227;6.376;-10.782;2024-02-14T04:55:24;61.08;;;31.45;;
56321;SDS011;42227;6.376;-10.782;2024-02-14T04:57:52;73.45;;;24.77;;
56321;SDS011;42227;6.376;-10.782;2024-02-14T05:00:21;48.42;;;21.40;;
56321;SDS011;42227;6.376;-10.782;2024-02-14T05:02:49;38.58;;;22.75;;
56321;SDS011;42227;6.376;-10.782;2024-02-14T05:05:18;56.83;;;24.40;;
56321;SDS011;42227;6.376;-10.782;2024-02-14T05:07:47;75.68;;;26.55;;
56321;SDS011;42227;6.376;-10.782;2024-02-14T05:10:15;47.88;;;26.55;;
56321;SDS011;42227;6.376;-10.782;2024-02-14T05:12:43;60.90;;;27.08;;
56321;SDS011;42227;6.376;-10.782;2024-02-14T05:15:12;67.78;;;28.48;;
56321;SDS011;42227;6.376;-10.782;2024-02-14T05:17:43;64.13;;;27.85;;
56321;SDS011;42227;6.376;-10.782;2024-02-14T05:20:13;63.63;;;28.73;;
56321;SDS011;42227;6.376;-10.782;2024-02-14T05:22:41;65.40;;;27.50;;
56321;SDS011;42227;6.376;-10.782;2024-02-14T05:25:10;74.65;;;31.20;;
56321;SDS011;42227;6.376;-10.782;2024-02-14T05:27:39;75.78;;;33.42;;
56321;SDS011;42227;6.376;-10.782;2024-02-14T05:30:07;58.45;;;26.25;;
56321;SDS011;42227;6.376;-10.782;2024-02-14T05:32:36;52.33;;;25.50;;
56321;SDS011;42227;6.376;-10.782;2024-02-14T05:35:04;55.42;;;27.55;;
56321;SDS011;42227;6.376;-10.782;2024-02-14T05:37:33;55.55;;;26.05;;
56321;SDS011;42227;6.376;-10.782;2024-02-14T05:40:05;77.78;;;26.52;;
56321;SDS011;42227;6.376;-10.782;2024-02-14T05:42:34;42.75;;;22.70;;
56321;SDS011;42227;6.376;-10.782;2024-02-14T05:45:02;56.00;;;27.95;;
56321;SDS011;42227;6.376;-10.782;2024-02-14T05:47:31;51.63;;;24.20;;
56321;SDS011;42227;6.376;-10.782;2024-02-14T05:50:00;62.60;;;26.77;;
56321;SDS011;42227;6.376;-10.782;2024-02-14T05:52:29;64.53;;;27.05;;
56321;SDS011;42227;6.376;-10.782;2024-02-14T05:54:57;64.25;;;29.92;;
56321;SDS011;42227;6.376;-10.782;2024-02-14T05:57:26;52.97;;;23.20;;
56321;SDS011;42227;6.376;-10.782;2024-02-14T05:59:54;59.17;;;24.77;;
56321;SDS011;42227;6.376;-10.782;2024-02-14T06:02:24;56.58;;;26.88;;
56321;SDS011;42227;6.376;-10.782;2024-02-14T06:04:52;48.67;;;23.45;;
56321;SDS011;42227;6.376;-10.782;2024-02-14T06:07:21;61.40;;;26.67;;
56321;SDS011;42227;6.376;-10.782;2024-02-14T06:09:49;58.70;;;28.17;;
56321;SDS011;42227;6.376;-10.782;2024-02-14T06:12:19;51.83;;;27.52;;
56321;SDS011;42227;6.376;-10.782;2024-02-14T06:14:50;49.15;;;26.63;;
56321;SDS011;42227;6.376;-10.782;2024-02-14T06:17:18;52.50;;;27.73;;
56321;SDS011;42227;6.376;-10.782;2024-02-14T06:19:47;72.63;;;28.60;;
56321;SDS011;42227;6.376;-10.782;2024-02-14T06:22:15;61.10;;;25.90;;
56321;SDS011;42227;6.376;-10.782;2024-02-14T06:24:44;58.53;;;25.17;;
56321;SDS011;42227;6.376;-10.782;2024-02-14T06:27:12;61.08;;;29.67;;
56321;SDS011;42227;6.376;-10.782;2024-02-14T06:29:44;45.95;;;26.45;;
56321;SDS011;42227;6.376;-10.782;2024-02-14T06:32:13;66.22;;;27.85;;
56321;SDS011;42227;6.376;-10.782;2024-02-14T06:34:41;49.67;;;27.67;;
56321;SDS011;42227;6.376;-10.782;2024-02-14T06:37:10;56.03;;;24.67;;
56321;SDS011;42227;6.376;-10.782;2024-02-14T06:39:38;49.15;;;27.20;;
56321;SDS011;42227;6.376;-10.782;2024-02-14T06:42:07;72.43;;;26.65;;
56321;SDS011;42227;6.376;-10.782;2024-02-14T06:44:35;56.92;;;27.15;;
56321;SDS011;42227;6.376;-10.782;2024-02-14T06:47:04;64.18;;;28.30;;
56321;SDS011;42227;6.376;-10.782;2024-02-14T06:49:33;72.60;;;27.30;;
56321;SDS011;42227;6.376;-10.782;2024-02-14T06:52:01;62.67;;;28.27;;
56321;SDS011;42227;6.376;-10.782;2024-02-14T06:54:29;57.05;;;27.23;;
56321;SDS011;42227;6.376;-10.782;2024-02-14T06:56:58;64.28;;;29.45;;
56321;SDS011;42227;6.376;-10.782;2024-02-14T06:59:26;61.15;;;27.05;;
56321;SDS011;42227;6.376;-10.782;2024-02-14T07:01:55;60.00;;;26.23;;
56321;SDS011;42227;6.376;-10.782;2024-02-14T07:04:39;55.30;;;24.27;;
56321;SDS011;42227;6.376;-10.782;2024-02-14T07:07:08;52.78;;;25.77;;
56321;SDS011;42227;6.376;-10.782;2024-02-14T07:09:36;77.72;;;26.92;;
56321;SDS011;42227;6.376;-10.782;2024-02-14T07:12:05;74.72;;;28.50;;
56321;SDS011;42227;6.376;-10.782;2024-02-14T07:14:33;69.57;;;31.15;;
56321;SDS011;42227;6.376;-10.782;2024-02-14T07:17:02;89.72;;;40.92;;
56321;SDS011;42227;6.376;-10.782;2024-02-14T07:19:30;79.35;;;36.05;;
56321;SDS011;42227;6.376;-10.782;2024-02-14T07:21:59;78.05;;;40.95;;
56321;SDS011;42227;6.376;-10.782;2024-02-14T07:24:27;94.60;;;46.45;;
56321;SDS011;42227;6.376;-10.782;2024-02-14T07:26:55;74.55;;;35.80;;
56321;SDS011;42227;6.376;-10.782;2024-02-14T07:29:24;72.13;;;32.40;;
56321;SDS011;42227;6.376;-10.782;2024-02-14T07:31:52;74.43;;;33.08;;
56321;SDS011;42227;6.376;-10.782;2024-02-14T07:34:21;64.43;;;30.52;;
56321;SDS011;42227;6.376;-10.782;2024-02-14T07:36:49;70.22;;;28.77;;
56321;SDS011;42227;6.376;-10.782;2024-02-14T07:39:18;68.07;;;29.80;;
56321;SDS011;42227;6.376;-10.782;2024-02-14T07:41:46;63.92;;;26.90;;
56321;SDS011;42227;6.376;-10.782;2024-02-14T07:44:14;83.28;;;32.53;;
56321;SDS011;42227;6.376;-10.782;2024-02-14T08:06:33;60.13;;;26.08;;
56321;SDS011;42227;6.376;-10.782;2024-02-14T08:09:02;67.13;;;28.27;;
56321;SDS011;42227;6.376;-10.782;2024-02-14T08:11:30;62.38;;;31.20;;
56321;SDS011;42227;6.376;-10.782;2024-02-14T08:13:58;54.28;;;30.92;;
56321;SDS011;42227;6.376;-10.782;2024-02-14T08:16:27;60.78;;;27.67;;
56321;SDS011;42227;6.376;-10.782;2024-02-14T08:18:55;58.40;;;27.35;;
56321;SDS011;42227;6.376;-10.782;2024-02-14T08:21:27;60.95;;;26.40;;
56321;SDS011;42227;6.376;-10.782;2024-02-14T08:23:58;69.63;;;25.98;;
56321;SDS011;42227;6.376;-10.782;2024-02-14T08:26:28;60.85;;;22.92;;
56321;SDS011;42227;6.376;-10.782;2024-02-14T08:28:56;53.45;;;23.88;;
56321;SDS011;42227;6.376;-10.782;2024-02-14T08:31:25;73.95;;;23.70;;
56321;SDS011;42227;6.376;-10.782;2024-02-14T08:33:54;53.58;;;24.65;;
56321;SDS011;42227;6.376;-10.782;2024-02-14T08:36:23;73.88;;;23.15;;
56321;SDS011;42227;6.376;-10.782;2024-02-14T08:39:15;67.68;;;25.92;;
56321;SDS011;42227;6.376;-10.782;2024-02-14T08:41:44;57.17;;;22.23;;
56321;SDS011;42227;6.376;-10.782;2024-02-14T08:44:13;68.10;;;23.95;;
56321;SDS011;42227;6.376;-10.782;2024-02-14T08:46:41;48.38;;;24.58;;
56321;SDS011;42227;6.376;-10.782;2024-02-14T08:49:10;51.35;;;23.10;;
56321;SDS011;42227;6.376;-10.782;2024-02-14T08:51:39;57.53;;;26.88;;
56321;SDS011;42227;6.376;-10.782;2024-02-14T08:54:07;54.03;;;27.00;;
56321;SDS011;42227;6.376;-10.782;2024-02-14T08:56:36;56.10;;;24.52;;
56321;SDS011;42227;6.376;-10.782;2024-02-14T08:59:04;56.33;;;26.02;;
56321;SDS011;42227;6.376;-10.782;2024-02-14T09:01:33;79.38;;;25.85;;
56321;SDS011;42227;6.376;-10.782;2024-02-14T09:04:01;53.72;;;23.13;;
56321;SDS011;42227;6.376;-10.782;2024-02-14T09:06:30;58.55;;;26.77;;
56321;SDS011;42227;6.376;-10.782;2024-02-14T09:08:58;68.80;;;27.20;;
56321;SDS011;42227;6.376;-10.782;2024-02-14T09:11:27;54.28;;;22.02;;
56321;SDS011;42227;6.376;-10.782;2024-02-14T09:13:59;44.75;;;24.20;;
56321;SDS011;42227;6.376;-10.782;2024-02-14T09:16:27;51.38;;;26.27;;
56321;SDS011;42227;6.376;-10.782;2024-02-14T09:18:56;59.20;;;26.35;;
56321;SDS011;42227;6.376;-10.782;2024-02-14T09:21:24;70.93;;;27.33;;
56321;SDS011;42227;6.376;-10.782;2024-02-14T09:23:53;53.50;;;26.98;;
56321;SDS011;42227;6.376;-10.782;2024-02-14T09:26:21;71.43;;;27.02;;
56321;SDS011;42227;6.376;-10.782;2024-02-14T09:28:50;62.47;;;26.98;;
56321;SDS011;42227;6.376;-10.782;2024-02-14T09:31:21;66.30;;;25.58;;
56321;SDS011;42227;6.376;-10.782;2024-02-14T09:33:49;72.43;;;26.30;;
56321;SDS011;42227;6.376;-10.782;2024-02-14T09:36:18;57.83;;;26.10;;
56321;SDS011;42227;6.376;-10.782;2024-02-14T09:38:47;66.88;;;27.10;;
56321;SDS011;42227;6.376;-10.782;2024-02-14T09:41:21;58.72;;;23.27;;
56321;SDS011;42227;6.376;-10.782;2024-02-14T09:43:57;56.13;;;26.25;;
56321;SDS011;42227;6.376;-10.782;2024-02-14T09:46:26;54.42;;;22.90;;
56321;SDS011;42227;6.376;-10.782;2024-02-14T09:48:54;70.18;;;29.15;;
56321;SDS011;42227;6.376;-10.782;2024-02-14T09:51:24;45.10;;;25.73;;
56321;SDS011;42227;6.376;-10.782;2024-02-14T09:53:53;69.40;;;24.50;;
56321;SDS011;42227;6.376;-10.782;2024-02-14T09:56:22;58.13;;;21.50;;
56321;SDS011;42227;6.376;-10.782;2024-02-14T09:58:51;47.33;;;20.63;;
56321;SDS011;42227;6.376;-10.782;2024-02-14T10:01:20;29.75;;;16.92;;
56321;SDS011;42227;6.376;-10.782;2024-02-14T10:03:50;48.72;;;20.10;;
56321;SDS011;42227;6.376;-10.782;2024-02-14T10:06:19;35.17;;;19.50;;
56321;SDS011;42227;6.376;-10.782;2024-02-14T10:08:48;46.55;;;22.50;;
56321;SDS011;42227;6.376;-10.782;2024-02-14T10:13:59;57.05;;;23.10;;
56321;SDS011;42227;6.376;-10.782;2024-02-14T10:16:28;58.55;;;21.20;;
56321;SDS011;42227;6.376;-10.782;2024-02-14T10:18:57;43.30;;;20.48;;
56321;SDS011;42227;6.376;-10.782;2024-02-14T10:21:26;50.20;;;20.63;;
56321;SDS011;42227;6.376;-10.782;2024-02-14T10:23:58;37.70;;;18.05;;
56321;SDS011;42227;6.376;-10.782;2024-02-14T10:26:28;57.33;;;20.08;;
56321;SDS011;42227;6.376;-10.782;2024-02-14T10:28:57;56.22;;;20.63;;
56321;SDS011;42227;6.376;-10.782;2024-02-14T10:31:26;40.80;;;19.30;;
56321;SDS011;42227;6.376;-10.782;2024-02-14T10:33:55;43.97;;;18.33;;
56321;SDS011;42227;6.376;-10.782;2024-02-14T10:36:24;46.95;;;20.67;;
56321;SDS011;42227;6.376;-10.782;2024-02-14T10:38:54;54.88;;;21.30;;
56321;SDS011;42227;6.376;-10.782;2024-02-14T10:41:23;46.63;;;20.60;;
56321;SDS011;42227;6.376;-10.782;2024-02-14T10:43:52;46.50;;;21.63;;
56321;SDS011;42227;6.376;-10.782;2024-02-14T10:46:22;44.80;;;17.80;;
56321;SDS011;42227;6.376;-10.782;2024-02-14T10:48:54;34.92;;;19.95;;
56321;SDS011;42227;6.376;-10.782;2024-02-14T10:51:30;51.08;;;21.92;;
56321;SDS011;42227;6.376;-10.782;2024-02-14T10:54:03;47.20;;;20.88;;
56321;SDS011;42227;6.376;-10.782;2024-02-14T10:56:38;43.97;;;19.70;;
56321;SDS011;42227;6.376;-10.782;2024-02-14T10:59:10;38.67;;;19.30;;
56321;SDS011;42227;6.376;-10.782;2024-02-14T11:01:43;45.47;;;18.10;;
56321;SDS011;42227;6.376;-10.782;2024-02-14T11:04:12;53.20;;;19.30;;
56321;SDS011;42227;6.376;-10.782;2024-02-14T11:06:48;52.55;;;19.83;;
56321;SDS011;42227;6.376;-10.782;2024-02-14T11:09:19;37.75;;;17.20;;
56321;SDS011;42227;6.376;-10.782;2024-02-14T11:11:48;44.40;;;15.30;;
56321;SDS011;42227;6.376;-10.782;2024-02-14T11:14:19;43.63;;;17.02;;
56321;SDS011;42227;6.376;-10.782;2024-02-14T11:16:48;43.75;;;18.20;;
56321;SDS011;42227;6.376;-10.782;2024-02-14T11:19:29;47.67;;;23.67;;
56321;SDS011;42227;6.376;-10.782;2024-02-14T11:22:11;36.90;;;20.23;;
56321;SDS011;42227;6.376;-10.782;2024-02-14T11:24:40;50.58;;;21.67;;
56321;SDS011;42227;6.376;-10.782;2024-02-14T11:27:10;36.53;;;17.58;;
56321;SDS011;42227;6.376;-10.782;2024-02-14T11:29:58;45.55;;;17.65;;
56321;SDS011;42227;6.376;-10.782;2024-02-14T11:32:28;33.60;;;14.60;;
56321;SDS011;42227;6.376;-10.782;2024-02-14T11:34:56;35.13;;;17.63;;
56321;SDS011;42227;6.376;-10.782;2024-02-14T11:37:28;39.53;;;17.65;;
56321;SDS011;42227;6.376;-10.782;2024-02-14T11:39:58;45.85;;;17.63;;
56321;SDS011;42227;6.376;-10.782;2024-02-14T11:42:26;37.72;;;16.38;;
56321;SDS011;42227;6.376;-10.782;2024-02-14T11:44:57;51.10;;;25.30;;
56321;SDS011;42227;6.376;-10.782;2024-02-14T11:47:25;45.63;;;16.17;;
56321;SDS011;42227;6.376;-10.782;2024-02-14T11:49:54;47.05;;;18.02;;
56321;SDS011;42227;6.376;-10.782;2024-02-14T11:52:23;32.03;;;15.18;;
56321;SDS011;42227;6.376;-10.782;2024-02-14T11:54:53;56.03;;;19.38;;
56321;SDS011;42227;6.376;-10.782;2024-02-14T11:57:21;39.33;;;16.13;;
56321;SDS011;42227;6.376;-10.782;2024-02-14T11:59:49;36.35;;;16.90;;
56321;SDS011;42227;6.376;-10.782;2024-02-14T12:02:21;31.10;;;14.82;;
56321;SDS011;42227;6.376;-10.782;2024-02-14T12:04:49;37.50;;;14.48;;
56321;SDS011;42227;6.376;-10.782;2024-02-14T12:07:18;39.83;;;19.38;;
56321;SDS011;42227;6.376;-10.782;2024-02-14T12:09:47;45.95;;;15.35;;
56321;SDS011;42227;6.376;-10.782;2024-02-14T12:12:15;52.15;;;18.77;;
56321;SDS011;42227;6.376;-10.782;2024-02-14T12:14:44;52.70;;;20.05;;
56321;SDS011;42227;6.376;-10.782;2024-02-14T12:17:12;40.28;;;20.17;;
56321;SDS011;42227;6.376;-10.782;2024-02-14T12:19:41;41.40;;;19.05;;
56321;SDS011;42227;6.376;-10.782;2024-02-14T12:22:10;42.85;;;23.08;;
56321;SDS011;42227;6.376;-10.782;2024-02-14T12:24:38;43.88;;;18.13;;
56321;SDS011;42227;6.376;-10.782;2024-02-14T12:27:07;54.75;;;19.75;;
56321;SDS011;42227;6.376;-10.782;2024-02-14T12:29:36;42.03;;;18.85;;
56321;SDS011;42227;6.376;-10.782;2024-02-14T12:32:05;43.97;;;18.98;;
56321;SDS011;42227;6.376;-10.782;2024-02-14T12:34:34;34.67;;;16.13;;
56321;SDS011;42227;6.376;-10.782;2024-02-14T12:37:05;37.17;;;16.27;;
56321;SDS011;42227;6.376;-10.782;2024-02-14T12:39:34;37.03;;;17.65;;
56321;SDS011;42227;6.376;-10.782;2024-02-14T12:42:05;38.30;;;14.05;;
56321;SDS011;42227;6.376;-10.782;2024-02-14T12:44:34;35.38;;;16.73;;
56321;SDS011;42227;6.376;-10.782;2024-02-14T12:47:02;36.78;;;17.55;;
56321;SDS011;42227;6.376;-10.782;2024-02-14T12:49:30;46.83;;;16.08;;
56321;SDS011;42227;6.376;-10.782;2024-02-14T12:51:59;47.45;;;16.63;;
56321;SDS011;42227;6.376;-10.782;2024-02-14T12:54:27;43.00;;;18.92;;
56321;SDS011;42227;6.376;-10.782;2024-02-14T12:56:56;39.90;;;15.45;;
56321;SDS011;42227;6.376;-10.782;2024-02-14T12:59:24;41.45;;;15.02;;
56321;SDS011;42227;6.376;-10.782;2024-02-14T13:01:53;35.63;;;13.40;;
56321;SDS011;42227;6.376;-10.782;2024-02-14T13:04:21;38.00;;;17.33;;
56321;SDS011;42227;6.376;-10.782;2024-02-14T13:06:50;36.22;;;16.77;;
56321;SDS011;42227;6.376;-10.782;2024-02-14T13:09:18;45.92;;;17.08;;
56321;SDS011;42227;6.376;-10.782;2024-02-14T13:11:47;58.17;;;18.48;;
56321;SDS011;42227;6.376;-10.782;2024-02-14T13:14:15;42.17;;;20.00;;
56321;SDS011;42227;6.376;-10.782;2024-02-14T13:16:43;53.47;;;18.85;;
56321;SDS011;42227;6.376;-10.782;2024-02-14T13:19:12;48.97;;;18.20;;
56321;SDS011;42227;6.376;-10.782;2024-02-14T13:21:46;38.22;;;15.80;;
56321;SDS011;42227;6.376;-10.782;2024-02-14T13:24:14;48.13;;;17.02;;
56321;SDS011;42227;6.376;-10.782;2024-02-14T13:26:43;51.92;;;19.85;;
56321;SDS011;42227;6.376;-10.782;2024-02-14T13:29:11;46.38;;;16.27;;
56321;SDS011;42227;6.376;-10.782;2024-02-14T13:31:40;59.42;;;16.70;;
56321;SDS011;42227;6.376;-10.782;2024-02-14T13:34:09;43.85;;;17.55;;
56321;SDS011;42227;6.376;-10.782;2024-02-14T13:36:37;40.53;;;17.73;;
56321;SDS011;42227;6.376;-10.782;2024-02-14T13:39:05;51.42;;;19.25;;
56321;SDS011;42227;6.376;-10.782;2024-02-14T13:41:34;45.85;;;18.98;;
56321;SDS011;42227;6.376;-10.782;2024-02-14T13:44:02;41.03;;;17.63;;
56321;SDS011;42227;6.376;-10.782;2024-02-14T13:46:31;41.88;;;17.27;;
56321;SDS011;42227;6.376;-10.782;2024-02-14T13:48:59;45.92;;;18.50;;
56321;SDS011;42227;6.376;-10.782;2024-02-14T13:51:28;50.15;;;18.05;;
56321;SDS011;42227;6.376;-10.782;2024-02-14T13:53:56;47.97;;;18.25;;
56321;SDS011;42227;6.376;-10.782;2024-02-14T13:56:25;46.60;;;19.95;;
56321;SDS011;42227;6.376;-10.782;2024-02-14T13:58:53;54.00;;;18.00;;
56321;SDS011;42227;6.376;-10.782;2024-02-14T14:01:21;36.38;;;17.73;;
56321;SDS011;42227;6.376;-10.782;2024-02-14T14:03:50;39.13;;;17.27;;
56321;SDS011;42227;6.376;-10.782;2024-02-14T14:06:18;51.42;;;19.73;;
56321;SDS011;42227;6.376;-10.782;2024-02-14T14:08:46;44.75;;;19.10;;
56321;SDS011;42227;6.376;-10.782;2024-02-14T14:11:17;50.85;;;18.30;;
56321;SDS011;42227;6.376;-10.782;2024-02-14T14:13:45;58.47;;;19.88;;
56321;SDS011;42227;6.376;-10.782;2024-02-14T14:16:14;35.08;;;16.55;;
56321;SDS011;42227;6.376;-10.782;2024-02-14T14:18:43;32.00;;;16.58;;
56321;SDS011;42227;6.376;-10.782;2024-02-14T14:21:11;52.35;;;17.40;;
56321;SDS011;42227;6.376;-10.782;2024-02-14T14:23:40;64.07;;;24.13;;
56321;SDS011;42227;6.376;-10.782;2024-02-14T14:26:08;38.17;;;17.05;;
56321;SDS011;42227;6.376;-10.782;2024-02-14T14:28:37;50.35;;;26.88;;
56321;SDS011;42227;6.376;-10.782;2024-02-14T14:31:05;49.30;;;19.15;;
56321;SDS011;42227;6.376;-10.782;2024-02-14T14:33:38;53.42;;;20.08;;
56321;SDS011;42227;6.376;-10.782;2024-02-14T14:36:07;34.55;;;15.63;;
56321;SDS011;42227;6.376;-10.782;2024-02-14T14:38:36;55.35;;;16.20;;
56321;SDS011;42227;6.376;-10.782;2024-02-14T14:41:04;51.30;;;17.63;;
56321;SDS011;42227;6.376;-10.782;2024-02-14T14:43:33;41.00;;;17.85;;
56321;SDS011;42227;6.376;-10.782;2024-02-14T14:46:01;52.17;;;17.08;;